Time;durP1;ratioP1;P1;durP2;ratioP2;P2;SDS_P1;SDS_P2;PMS_P1;PMS_P2;Temp;Humidity;BMP_temperature;BMP_pressure;BME280_temperature;BME280_humidity;BME280_pressure;Samples;Min_cycle;Max_cycle;Signal;HPM_P1;HPM_P2
2023/03/06 00:01:47;;;;;;;;;;;;;;;;;;5014663;28;6936;-64
2023/03/06 00:04:14;;;;;;;;;;;;;;;;;;5016607;28;7412;-64
2023/03/06 00:06:39;;;;;;;;;;;;;;;;;;5018449;28;7212;-64
2023/03/06 00:09:08;;;;;;;;;;;;;;;;;;5018595;28;7203;-64
2023/03/06 00:11:44;;;;;;;;;;;;;;;;;;5018027;28;8008;-64
2023/03/06 00:14:09;;;;;;;;;;;;;;;;;;5018523;28;7220;-64
2023/03/06 00:16:35;;;;;;;;;;;;;;;;;;5018253;28;7158;-64
2023/03/06 00:19:29;;;;;;;;;;;;;;;;;;5018080;28;6964;-64
2023/03/06 00:21:55;;;;;;;;;;;;;;;;;;5018147;28;7087;-64
2023/03/06 00:24:20;;;;;;;;;;;;;;;;;;5018537;28;7013;-64
2023/03/06 00:26:46;;;;;;;;;;;;;;;;;;5018153;28;7204;-64
2023/03/06 00:29:12;;;;;;;;;;;;;;;;;;5018100;28;7162;-64
2023/03/06 00:31:39;;;;;;;;;;;;;;;;;;5018038;28;7185;-64
2023/03/06 00:34:05;;;;;;;;;;;;;;;;;;5018120;28;7056;-64
2023/03/06 00:37:05;;;;;;;;;;;;;;;;;;5017976;28;6948;-64
2023/03/06 00:39:38;;;;;;;;;;;;;;;;;;5017636;28;7200;-64
2023/03/06 00:42:04;;;;;;;;;;;;;;;;;;5017848;28;6953;-64
2023/03/06 00:47:20;;;;;;;;;;;;;;;;;;5017802;28;6937;-64
2023/03/06 00:49:46;;;;;;;;;;;;;;;;;;5017505;28;7116;-64
2023/03/06 00:52:12;;;;;;;;;;;;;;;;;;5017585;28;7090;-64
2023/03/06 00:55:09;;;;;;;;;;;;;;;;;;5017713;28;7132;-64
2023/03/06 00:57:35;;;;;;;;;;;;;;;;;;5017589;28;7397;-64
2023/03/06 01:00:01;;;;;;;;;;;;;;;;;;5017913;28;7503;-64
2023/03/06 01:02:27;;;;;;;;;;;;;;;;;;5017449;28;7181;-64
2023/03/06 01:04:52;;;;;;;;;;;;;;;;;;5017614;28;7131;-64
2023/03/06 01:07:35;;;;;;;;;;;;;;;;;;5017454;28;7285;-64
2023/03/06 01:10:02;;;;;;;;;;;;;;;;;;5017462;28;7416;-64
2023/03/06 01:12:28;;;;;;;;;;;;;;;;;;5016891;28;7150;-64
2023/03/06 01:15:13;;;;;;;;;;;;;;;;;;5016389;28;7138;-64
2023/03/06 01:17:39;;;;;;;;;;;;;;;;;;5017215;28;7160;-64
2023/03/06 01:20:05;;;;;;;;;;;;;;;;;;5017230;28;7102;-64
2023/03/06 01:22:31;;;;;;;;;;;;;;;;;;5017086;28;7054;-64
2023/03/06 01:24:57;;;;;;;;;;;;;;;;;;5016657;28;7105;-64
2023/03/06 01:27:22;;;;;;;;;;;;;;;;;;5017921;28;7112;-64
2023/03/06 01:30:10;;;;;;;;;;;;;;;;;;5016936;28;7170;-64
2023/03/06 01:32:36;;;;;;;;;;;;;;;;;;5016792;28;6842;-64
2023/03/06 01:38:07;;;;;;;;;;;;;;;;;;5016974;28;6677;-64
2023/03/06 01:40:35;;;;;;;;;;;;;;;;;;5016586;28;6976;-64
2023/03/06 01:46:22;;;;;;;;;;;;;;;;;;5016562;28;6689;-64
2023/03/06 01:48:51;;;;;;;;;;;;;;;;;;5016769;28;7173;-64
2023/03/06 01:54:39;;;;;;;;;;;;;;;;;;5016409;28;6983;-63
2023/03/06 01:57:12;;;;;;;;;;;;;;;;;;5016505;28;7363;-63
2023/03/06 01:59:56;;;;;;;;;;;;;;;;;;5016176;28;7359;-63
2023/03/06 02:02:22;;;;;;;;;;;;;;;;;;5016291;28;7042;-63
2023/03/06 02:04:48;;;;;;;;;;;;;;;;;;5016461;28;7102;-63
2023/03/06 02:07:17;;;;;;;;;;;;;;;;;;5016341;28;7418;-63
2023/03/06 02:09:44;;;;;;;;;;;;;;;;;;5016282;28;7171;-63
2023/03/06 02:12:12;;;;;;;;;;;;;;;;;;5015745;28;7206;-63
2023/03/06 02:14:40;;;;;;;;;;;;;;;;;;5016225;28;7203;-63
2023/03/06 02:17:38;;;;;;;;;;;;;;;;;;5016039;28;7210;-63
2023/03/06 02:20:12;;;;;;;;;;;;;;;;;;5016093;28;7280;-63
2023/03/06 02:22:46;;;;;;;;;;;;;;;;;;5015908;28;7155;-63
2023/03/06 02:25:20;;;;;;;;;;;;;;;;;;5016009;28;7566;-63
2023/03/06 02:27:47;;;;;;;;;;;;;;;;;;5015704;28;7398;-63
2023/03/06 02:33:05;;;;;;;;;;;;;;;;;;5015728;28;6956;-63
2023/03/06 02:35:34;;;;;;;;;;;;;;;;;;5016670;28;7367;-63
2023/03/06 02:38:06;;;;;;;;;;;;;;;;;;5015739;28;7152;-63
2023/03/06 02:40:32;;;;;;;;;;;;;;;;;;5015209;28;7030;-63
2023/03/06 02:42:58;;;;;;;;;;;;;;;;;;5015221;28;7203;-63
2023/03/06 02:45:53;;;;;;;;;;;;;;;;;;5015626;28;7003;-63
2023/03/06 02:48:19;;;;;;;;;;;;;;;;;;5015630;28;7154;-63
2023/03/06 02:50:46;;;;;;;;;;;;;;;;;;5015062;28;8202;-63
2023/03/06 02:53:33;;;;;;;;;;;;;;;;;;5015703;28;7298;-63
2023/03/06 02:56:00;;;;;;;;;;;;;;;;;;5015393;28;6947;-63
2023/03/06 02:58:42;;;;;;;;;;;;;;;;;;5015445;28;7242;-63
2023/03/06 03:01:07;;;;;;;;;;;;;;;;;;5015306;28;7388;-63
2023/03/06 03:06:54;;;;;;;;;;;;;;;;;;5015032;28;6927;-63
2023/03/06 03:09:19;;;;;;;;;;;;;;;;;;5016177;28;7125;-63
2023/03/06 03:11:45;;;;;;;;;;;;;;;;;;5015065;28;7081;-63
2023/03/06 03:14:17;;;;;;;;;;;;;;;;;;5015268;28;7099;-63
2023/03/06 03:16:44;;;;;;;;;;;;;;;;;;5015128;28;7499;-63
2023/03/06 03:19:20;;;;;;;;;;;;;;;;;;5015454;28;7049;-63
2023/03/06 03:21:46;;;;;;;;;;;;;;;;;;5014932;28;7039;-63
2023/03/06 03:24:11;;;;;;;;;;;;;;;;;;5015096;28;7366;-63
2023/03/06 03:26:56;;;;;;;;;;;;;;;;;;5015008;28;7168;-63
2023/03/06 03:29:22;;;;;;;;;;;;;;;;;;5014791;28;6872;-63
2023/03/06 03:31:47;;;;;;;;;;;;;;;;;;5014851;28;7231;-63
2023/03/06 03:34:13;;;;;;;;;;;;;;;;;;5015025;28;7371;-63
2023/03/06 03:36:39;;;;;;;;;;;;;;;;;;5014874;28;7128;-63
2023/03/06 03:39:05;;;;;;;;;;;;;;;;;;5016031;28;7171;-63
2023/03/06 03:41:32;;;;;;;;;;;;;;;;;;5019078;28;6938;-63
2023/03/06 03:43:58;;;;;;;;;;;;;;;;;;5018923;28;7112;-63
2023/03/06 03:46:24;;;;;;;;;;;;;;;;;;5018847;28;7167;-63
2023/03/06 03:48:55;;;;;;;;;;;;;;;;;;5018980;28;7237;-64
2023/03/06 03:51:21;;;;;;;;;;;;;;;;;;5018818;28;7148;-64
2023/03/06 03:53:48;;;;;;;;;;;;;;;;;;5018871;28;7082;-64
2023/03/06 03:56:34;;;;;;;;;;;;;;;;;;5018511;28;8372;-64
2023/03/06 03:58:59;;;;;;;;;;;;;;;;;;5018791;28;7130;-64
2023/03/06 04:01:25;;;;;;;;;;;;;;;;;;5018647;28;7083;-64
2023/03/06 04:04:25;;;;;;;;;;;;;;;;;;5018337;28;7077;-63
2023/03/06 04:06:51;;;;;;;;;;;;;;;;;;5018635;28;6976;-63
2023/03/06 04:09:17;;;;;;;;;;;;;;;;;;5018495;28;7125;-63
2023/03/06 04:14:45;;;;;;;;;;;;;;;;;;5018169;28;7120;-63
2023/03/06 04:17:10;;;;;;;;;;;;;;;;;;5018507;28;7010;-63
2023/03/06 04:22:29;;;;;;;;;;;;;;;;;;5018797;28;6954;-63
2023/03/06 04:25:01;;;;;;;;;;;;;;;;;;5017790;28;8331;-63
2023/03/06 04:27:27;;;;;;;;;;;;;;;;;;5017971;28;7275;-63
2023/03/06 04:29:55;;;;;;;;;;;;;;;;;;5018748;28;7076;-63
2023/03/06 04:32:36;;;;;;;;;;;;;;;;;;5018563;28;7273;-63
2023/03/06 04:35:01;;;;;;;;;;;;;;;;;;5017978;28;6969;-63
2023/03/06 04:37:30;;;;;;;;;;;;;;;;;;5018087;28;7463;-63
2023/03/06 04:39:56;;;;;;;;;;;;;;;;;;5016990;28;7138;-63
2023/03/06 04:42:21;;;;;;;;;;;;;;;;;;5018335;28;7401;-63
2023/03/06 04:44:55;;;;;;;;;;;;;;;;;;5017902;28;7171;-63
2023/03/06 04:47:20;;;;;;;;;;;;;;;;;;5017808;28;7177;-63
2023/03/06 04:49:48;;;;;;;;;;;;;;;;;;5017643;28;6995;-63
2023/03/06 04:52:14;;;;;;;;;;;;;;;;;;5017670;28;7196;-63
2023/03/06 04:57:50;;;;;;;;;;;;;;;;;;5017552;28;6681;-63
2023/03/06 05:03:25;;;;;;;;;;;;;;;;;;5036249;28;7055;-64
2023/03/06 05:08:54;;;;;;;;;;;;;;;;;;5037068;28;6911;-63
2023/03/06 05:14:37;;;;;;;;;;;;;;;;;;5037011;28;6931;-63
2023/03/06 05:17:02;;;;;;;;;;;;;;;;;;5037156;28;7217;-63
2023/03/06 05:19:28;;;;;;;;;;;;;;;;;;5036799;28;7163;-63
2023/03/06 05:21:53;;;;;;;;;;;;;;;;;;5037836;28;7014;-63
2023/03/06 05:24:24;;;;;;;;;;;;;;;;;;5036999;28;8376;-63
2023/03/06 05:26:49;;;;;;;;;;;;;;;;;;5037375;28;7205;-63
2023/03/06 05:29:15;;;;;;;;;;;;;;;;;;5037160;28;7069;-63
2023/03/06 05:31:49;;;;;;;;;;;;;;;;;;5036731;28;7019;-63
2023/03/06 05:34:15;;;;;;;;;;;;;;;;;;5036749;28;7934;-63
2023/03/06 05:39:38;;;;;;;;;;;;;;;;;;5036747;28;6765;-74
2023/03/06 05:48:23;;;;;;;;;;;;;;;;;;5036303;28;7028;-64
2023/03/06 05:50:53;;;;;;;;;;;;;;;;;;5022127;28;7164;-59
2023/03/06 05:56:12;;;;;;;;;;;;;;;;;;4996967;28;7036;-59
2023/03/06 05:58:38;;;;;;;;;;;;;;;;;;5009072;28;7203;-60
2023/03/06 06:01:28;;;;;;;;;;;;;;;;;;5016058;28;6958;-60
2023/03/06 06:03:54;;;;;;;;;;;;;;;;;;4996958;28;7036;-60
2023/03/06 06:09:23;;;;;;;;;;;;;;;;;;5016169;28;6931;-59
2023/03/06 06:14:42;;;;;;;;;;;;;;;;;;5016218;28;6772;-59
2023/03/06 06:17:09;;;;;;;;;;;;;;;;;;4999312;28;9416;-60
2023/03/06 06:19:34;;;;;;;;;;;;;;;;;;5016193;28;7285;-60
2023/03/06 06:22:03;;;;;;;;;;;;;;;;;;5015958;28;7179;-59
2023/03/06 06:24:46;;;;;;;;;;;;;;;;;;5015628;28;6972;-60
2023/03/06 06:27:12;;;;;;;;;;;;;;;;;;5015996;28;7137;-60
2023/03/06 06:43:23;;;;;;;;;;;;;;;;;;5213681;23;7269;-62
2023/03/06 06:45:48;;;;;;;;;;;;;;;;;;4997145;28;9040;-59
2023/03/06 06:48:16;;;;;;;;;;;;;;;;;;5015558;28;6948;-59
2023/03/06 06:50:42;;;;;;;;;;;;;;;;;;5142759;23;7446;-63
2023/03/06 06:53:07;;;;;;;;;;;;;;;;;;5043062;28;7150;-63
2023/03/06 06:55:32;;;;;;;;;;;;;;;;;;5034430;28;7058;-63
2023/03/06 06:57:58;;;;;;;;;;;;;;;;;;5035281;28;7668;-63
2023/03/06 07:03:26;;;;;;;;;;;;;;;;;;5054793;28;7008;-64
2023/03/06 07:05:55;;;;;;;;;;;;;;;;;;5055728;28;6947;-63
2023/03/06 07:08:38;;;;;;;;;;;;;;;;;;5055015;28;7065;-64
2023/03/06 07:11:10;;;;;;;;;;;;;;;;;;5055008;28;7115;-65
2023/03/06 07:13:38;;;;;;;;;;;;;;;;;;5053715;28;7383;-65
2023/03/06 07:16:03;;;;;;;;;;;;;;;;;;5053991;28;7162;-64
2023/03/06 07:18:41;;;;;;;;;;;;;;;;;;5054765;28;7193;-64
2023/03/06 07:21:07;;;;;;;;;;;;;;;;;;5054934;28;7023;-64
2023/03/06 07:23:32;;;;;;;;;;;;;;;;;;5054986;28;6930;-64
2023/03/06 07:29:03;;;;;;;;;;;;;;;;;;5054571;28;6677;-64
2023/03/06 07:31:28;;;;;;;;;;;;;;;;;;5054784;28;7159;-64
2023/03/06 07:33:54;;;;;;;;;;;;;;;;;;5054591;28;7338;-64
2023/03/06 07:36:55;;;;;;;;;;;;;;;;;;5054675;28;7078;-64
2023/03/06 07:39:21;;;;;;;;;;;;;;;;;;5054607;28;7152;-64
2023/03/06 07:44:49;;;;;;;;;;;;;;;;;;5054369;28;6941;-66
2023/03/06 07:47:16;;;;;;;;;;;;;;;;;;5053279;28;8420;-66
2023/03/06 07:49:41;;;;;;;;;;;;;;;;;;5054570;28;7140;-65
2023/03/06 07:52:07;;;;;;;;;;;;;;;;;;5054392;28;7268;-65
2023/03/06 07:54:34;;;;;;;;;;;;;;;;;;5054436;28;7080;-65
2023/03/06 07:57:15;;;;;;;;;;;;;;;;;;5055284;28;6967;-65
2023/03/06 07:59:41;;;;;;;;;;;;;;;;;;5053729;28;7140;-66
2023/03/06 08:02:25;;;;;;;;;;;;;;;;;;5052379;28;6917;-66
2023/03/06 08:04:52;;;;;;;;;;;;;;;;;;5053131;28;7018;-66
2023/03/06 08:07:28;;;;;;;;;;;;;;;;;;5054378;28;7131;-66
2023/03/06 08:09:54;;;;;;;;;;;;;;;;;;5054381;28;6972;-65
2023/03/06 08:15:29;;;;;;;;;;;;;;;;;;5054188;28;6708;-65
2023/03/06 08:17:55;;;;;;;;;;;;;;;;;;5053972;28;7142;-65
2023/03/06 08:20:42;;;;;;;;;;;;;;;;;;5054018;28;7108;-66
2023/03/06 08:23:08;;;;;;;;;;;;;;;;;;5053938;28;7272;-66
2023/03/06 08:25:34;;;;;;;;;;;;;;;;;;5056535;28;7163;-66
2023/03/06 08:31:08;;;;;;;;;;;;;;;;;;5057761;28;7027;-66
2023/03/06 08:36:33;;;;;;;;;;;;;;;;;;5058792;28;7014;-65
2023/03/06 08:38:59;;;;;;;;;;;;;;;;;;5057505;28;6970;-65
2023/03/06 08:41:50;;;;;;;;;;;;;;;;;;5057838;28;7128;-65
2023/03/06 08:44:16;;;;;;;;;;;;;;;;;;5056642;28;7193;-66
2023/03/06 08:52:47;;;;;;;;;;;;;;;;;;5057082;28;6952;-65
2023/03/06 08:55:13;;;;;;;;;;;;;;;;;;5057406;28;6920;-65
2023/03/06 08:57:38;;;;;;;;;;;;;;;;;;5043852;28;7174;-66
2023/03/06 09:00:07;;;;;;;;;;;;;;;;;;5037125;28;7042;-65
2023/03/06 09:02:43;;;;;;;;;;;;;;;;;;5037099;28;7168;-65
2023/03/06 09:05:09;;;;;;;;;;;;;;;;;;5037410;28;6963;-64
2023/03/06 09:07:45;;;;;;;;;;;;;;;;;;5042492;28;7277;-64
2023/03/06 09:10:12;;;;;;;;;;;;;;;;;;5056864;28;7105;-66
2023/03/06 09:13:15;;;;;;;;;;;;;;;;;;5057255;28;7211;-65
2023/03/06 09:15:40;;;;;;;;;;;;;;;;;;5056991;28;7233;-66
2023/03/06 09:18:28;;;;;;;;;;;;;;;;;;5046860;28;7471;-66
2023/03/06 09:20:54;;;;;;;;;;;;;;;;;;5032938;28;7249;-66
2023/03/06 09:23:19;;;;;;;;;;;;;;;;;;5036850;28;7332;-65
2023/03/06 09:25:50;;;;;;;;;;;;;;;;;;5036947;28;7346;-65
2023/03/06 09:28:16;;;;;;;;;;;;;;;;;;5047443;28;7158;-65
2023/03/06 09:31:05;;;;;;;;;;;;;;;;;;5057123;28;7256;-66
2023/03/06 09:33:32;;;;;;;;;;;;;;;;;;5056592;28;7336;-65
2023/03/06 09:39:26;;;;;;;;;;;;;;;;;;5040723;28;7015;-65
2023/03/06 09:41:52;;;;;;;;;;;;;;;;;;5018588;28;7102;-65
2023/03/06 09:50:27;;;;;;;;;;;;;;;;;;5035646;28;6686;-65
2023/03/06 09:52:56;;;;;;;;;;;;;;;;;;5041364;28;7346;-64
2023/03/06 09:55:29;;;;;;;;;;;;;;;;;;5056201;28;7164;-64
2023/03/06 10:01:34;;;;;;;;;;;;;;;;;;5056148;28;6920;-65
2023/03/06 10:04:04;;;;;;;;;;;;;;;;;;5043152;28;7072;-65
2023/03/06 10:06:35;;;;;;;;;;;;;;;;;;5056071;28;7228;-65
2023/03/06 10:09:22;;;;;;;;;;;;;;;;;;5055834;28;7438;-65
2023/03/06 10:11:47;;;;;;;;;;;;;;;;;;5055500;28;7223;-65
2023/03/06 10:14:20;;;;;;;;;;;;;;;;;;5056008;28;7401;-65
2023/03/06 10:17:15;;;;;;;;;;;;;;;;;;5055835;28;6877;-65
2023/03/06 10:19:41;;;;;;;;;;;;;;;;;;5055095;28;9051;-65
2023/03/06 10:22:35;;;;;;;;;;;;;;;;;;5055844;28;7010;-65
2023/03/06 10:28:12;;;;;;;;;;;;;;;;;;5050951;28;6993;-65
2023/03/06 10:30:57;;;;;;;;;;;;;;;;;;5035489;28;7163;-64
2023/03/06 10:36:48;;;;;;;;;;;;;;;;;;5035295;28;7018;-64
2023/03/06 10:39:19;;;;;;;;;;;;;;;;;;5035541;28;7359;-65
2023/03/06 10:42:02;;;;;;;;;;;;;;;;;;5035477;28;7201;-65
2023/03/06 10:44:29;;;;;;;;;;;;;;;;;;5035514;28;7280;-65
2023/03/06 10:49:41;;;;;;;;;;;;;;;;;;5055893;28;7121;-64
2023/03/06 10:52:40;;;;;;;;;;;;;;;;;;5052592;28;7150;-64
2023/03/06 10:58:18;;;;;;;;;;;;;;;;;;5055249;28;6784;-64
2023/03/06 11:07:13;;;;;;;;;;;;;;;;;;5054907;28;6917;-64
2023/03/06 11:09:57;;;;;;;;;;;;;;;;;;5051910;28;7193;-64
2023/03/06 11:12:26;;;;;;;;;;;;;;;;;;5043581;28;7478;-64
2023/03/06 11:15:12;;;;;;;;;;;;;;;;;;5035017;28;7166;-64
2023/03/06 11:17:50;;;;;;;;;;;;;;;;;;5042949;28;7122;-64
2023/03/06 11:23:34;;;;;;;;;;;;;;;;;;5053953;28;6928;-63
2023/03/06 11:26:14;;;;;;;;;;;;;;;;;;5054468;28;7267;-63
2023/03/06 11:28:48;;;;;;;;;;;;;;;;;;5054884;28;7176;-63
2023/03/06 11:37:48;;;;;;;;;;;;;;;;;;5054260;28;6833;-62
2023/03/06 11:40:22;;;;;;;;;;;;;;;;;;5054529;28;7053;-62
2023/03/06 11:42:57;;;;;;;;;;;;;;;;;;5054054;28;7136;-63
2023/03/06 11:45:30;;;;;;;;;;;;;;;;;;5054340;28;7306;-62
2023/03/06 11:48:19;;;;;;;;;;;;;;;;;;5055116;28;7180;-62
2023/03/06 11:50:50;;;;;;;;;;;;;;;;;;5036417;28;8422;-62
2023/03/06 11:53:33;;;;;;;;;;;;;;;;;;5050703;28;6953;-64
2023/03/06 11:56:33;;;;;;;;;;;;;;;;;;5054610;28;7228;-64
2023/03/06 11:59:07;;;;;;;;;;;;;;;;;;5054344;28;7126;-64
2023/03/06 12:07:48;;;;;;;;;;;;;;;;;;5058151;28;7012;-64
2023/03/06 12:13:10;;;;;;;;;;;;;;;;;;5058514;28;6766;-64
2023/03/06 12:15:54;;;;;;;;;;;;;;;;;;5057823;28;7318;-64
2023/03/06 12:18:34;;;;;;;;;;;;;;;;;;5058443;28;7093;-63
2023/03/06 12:21:05;;;;;;;;;;;;;;;;;;5058150;28;6951;-63
2023/03/06 12:23:59;;;;;;;;;;;;;;;;;;5056406;28;7739;-64
2023/03/06 12:26:28;;;;;;;;;;;;;;;;;;5044781;28;7075;-64
2023/03/06 12:28:55;;;;;;;;;;;;;;;;;;5056449;28;7052;-64
2023/03/06 12:31:39;;;;;;;;;;;;;;;;;;5057688;28;7263;-64
2023/03/06 12:37:17;;;;;;;;;;;;;;;;;;5058016;28;6916;-63
2023/03/06 12:40:17;;;;;;;;;;;;;;;;;;5058473;28;7040;-63
2023/03/06 12:43:01;;;;;;;;;;;;;;;;;;5057355;28;7972;-63
2023/03/06 12:45:36;;;;;;;;;;;;;;;;;;5057623;28;7156;-63
2023/03/06 12:48:07;;;;;;;;;;;;;;;;;;5057703;28;7215;-63
2023/03/06 12:50:37;;;;;;;;;;;;;;;;;;5057269;28;7421;-60
2023/03/06 12:53:05;;;;;;;;;;;;;;;;;;5057236;28;6821;-60
2023/03/06 12:59:10;;;;;;;;;;;;;;;;;;5057144;28;6996;-60
2023/03/06 13:08:15;;;;;;;;;;;;;;;;;;5057106;28;6928;-61
2023/03/06 13:10:43;;;;;;;;;;;;;;;;;;5056957;28;7441;-60
2023/03/06 13:13:08;;;;;;;;;;;;;;;;;;5056606;28;7052;-60
2023/03/06 13:18:52;;;;;;;;;;;;;;;;;;4957049;28;6773;-60
2023/03/06 13:21:36;;;;;;;;;;;;;;;;;;4957328;28;7407;-60
2023/03/06 13:24:05;;;;;;;;;;;;;;;;;;4956969;28;7384;-60
2023/03/06 13:29:53;;;;;;;;;;;;;;;;;;4956627;28;7454;-60
2023/03/06 13:35:35;;;;;;;;;;;;;;;;;;4957183;28;6964;-60
2023/03/06 13:38:01;;;;;;;;;;;;;;;;;;4956610;28;7397;-60
2023/03/06 13:40:35;;;;;;;;;;;;;;;;;;4956728;28;7251;-60
2023/03/06 13:43:03;;;;;;;;;;;;;;;;;;4956515;28;7185;-60
2023/03/06 13:45:59;;;;;;;;;;;;;;;;;;4956384;28;7046;-60
2023/03/06 13:48:29;;;;;;;;;;;;;;;;;;4956205;28;8446;-60
2023/03/06 13:50:55;;;;;;;;;;;;;;;;;;4955800;28;7071;-60
2023/03/06 13:56:30;;;;;;;;;;;;;;;;;;5049342;28;6805;-60
2023/03/06 14:02:17;;;;;;;;;;;;;;;;;;5056457;28;6789;-60
2023/03/06 14:04:43;;;;;;;;;;;;;;;;;;5056184;28;7185;-60
2023/03/06 14:07:19;;;;;;;;;;;;;;;;;;5056138;28;7075;-60
2023/03/06 14:12:49;;;;;;;;;;;;;;;;;;5055982;28;6800;-60
2023/03/06 14:15:17;;;;;;;;;;;;;;;;;;5055899;28;7557;-60
2023/03/06 14:17:52;;;;;;;;;;;;;;;;;;5055522;28;7188;-60
2023/03/06 14:20:20;;;;;;;;;;;;;;;;;;5055396;28;7238;-60
2023/03/06 14:23:19;;;;;;;;;;;;;;;;;;5055309;28;7170;-60
2023/03/06 14:25:50;;;;;;;;;;;;;;;;;;5056521;28;7457;-60
2023/03/06 14:28:23;;;;;;;;;;;;;;;;;;5055503;28;7221;-60
2023/03/06 14:30:50;;;;;;;;;;;;;;;;;;5055133;28;7290;-60
2023/03/06 14:33:35;;;;;;;;;;;;;;;;;;5055154;28;6978;-60
2023/03/06 14:36:02;;;;;;;;;;;;;;;;;;5055531;28;7180;-60
2023/03/06 14:38:31;;;;;;;;;;;;;;;;;;5055816;28;7169;-60
2023/03/06 14:40:57;;;;;;;;;;;;;;;;;;5055086;28;7344;-60
2023/03/06 14:43:42;;;;;;;;;;;;;;;;;;5055328;28;6935;-60
2023/03/06 14:46:38;;;;;;;;;;;;;;;;;;5044832;28;7210;-60
2023/03/06 14:49:07;;;;;;;;;;;;;;;;;;5052948;28;7301;-60
2023/03/06 14:51:41;;;;;;;;;;;;;;;;;;5055035;28;7181;-60
2023/03/06 14:54:33;;;;;;;;;;;;;;;;;;5055440;28;7228;-60
2023/03/06 14:57:13;;;;;;;;;;;;;;;;;;5053728;28;8448;-60
2023/03/06 14:59:43;;;;;;;;;;;;;;;;;;5054804;28;7165;-60
2023/03/06 15:02:44;;;;;;;;;;;;;;;;;;5053770;28;8661;-60
2023/03/06 15:08:23;;;;;;;;;;;;;;;;;;5055239;28;6993;-60
2023/03/06 15:11:11;;;;;;;;;;;;;;;;;;5054535;28;6946;-60
2023/03/06 15:13:37;;;;;;;;;;;;;;;;;;5055663;28;7383;-60
2023/03/06 15:16:05;;;;;;;;;;;;;;;;;;5054679;28;7115;-60
2023/03/06 15:18:37;;;;;;;;;;;;;;;;;;5090830;23;6944;-60
2023/03/06 15:21:06;;;;;;;;;;;;;;;;;;5053443;28;9083;-60
2023/03/06 15:23:36;;;;;;;;;;;;;;;;;;5055014;28;6930;-60
2023/03/06 15:26:38;;;;;;;;;;;;;;;;;;5054792;28;7079;-60
2023/03/06 15:29:07;;;;;;;;;;;;;;;;;;5054768;28;7321;-60
2023/03/06 15:31:33;;;;;;;;;;;;;;;;;;5054769;28;7196;-59
2023/03/06 15:34:05;;;;;;;;;;;;;;;;;;5053995;28;7221;-60
2023/03/06 15:36:42;;;;;;;;;;;;;;;;;;5054640;28;7302;-60
2023/03/06 15:39:26;;;;;;;;;;;;;;;;;;5054334;28;7017;-60
2023/03/06 15:42:20;;;;;;;;;;;;;;;;;;5044987;28;7275;-60
2023/03/06 15:44:48;;;;;;;;;;;;;;;;;;5045295;28;7138;-60
2023/03/06 15:47:28;;;;;;;;;;;;;;;;;;5051146;28;7608;-59
2023/03/06 15:49:54;;;;;;;;;;;;;;;;;;5034519;28;7039;-60
2023/03/06 15:52:39;;;;;;;;;;;;;;;;;;5036414;28;7221;-60
2023/03/06 15:55:05;;;;;;;;;;;;;;;;;;5054291;28;8718;-60
2023/03/06 15:57:31;;;;;;;;;;;;;;;;;;5054360;28;7125;-60
2023/03/06 15:59:59;;;;;;;;;;;;;;;;;;5054509;28;6996;-60
2023/03/06 16:08:30;;;;;;;;;;;;;;;;;;5054194;28;6697;-60
2023/03/06 16:10:56;;;;;;;;;;;;;;;;;;5050317;28;7081;-60
2023/03/06 16:13:41;;;;;;;;;;;;;;;;;;5034173;28;6989;-59
2023/03/06 16:18:59;;;;;;;;;;;;;;;;;;5053670;28;7079;-60
2023/03/06 16:21:39;;;;;;;;;;;;;;;;;;5054237;28;7147;-60
2023/03/06 16:24:05;;;;;;;;;;;;;;;;;;5054171;28;7114;-60
2023/03/06 16:26:33;;;;;;;;;;;;;;;;;;5054129;28;7029;-60
2023/03/06 16:28:59;;;;;;;;;;;;;;;;;;5054013;28;7152;-60
2023/03/06 16:34:27;;;;;;;;;;;;;;;;;;5053706;28;6779;-60
2023/03/06 16:39:55;;;;;;;;;;;;;;;;;;5053852;28;6694;-60
2023/03/06 16:42:22;;;;;;;;;;;;;;;;;;5053985;28;7575;-60
2023/03/06 16:44:49;;;;;;;;;;;;;;;;;;5054037;28;7115;-59
2023/03/06 16:47:15;;;;;;;;;;;;;;;;;;5057286;28;7155;-60
2023/03/06 16:50:17;;;;;;;;;;;;;;;;;;5056872;28;7185;-60
2023/03/06 16:52:42;;;;;;;;;;;;;;;;;;5056260;28;7172;-60
2023/03/06 16:55:10;;;;;;;;;;;;;;;;;;5057469;28;7367;-60
2023/03/06 16:57:35;;;;;;;;;;;;;;;;;;5058314;28;7009;-60
2023/03/06 17:00:17;;;;;;;;;;;;;;;;;;5057002;28;8169;-59
2023/03/06 17:02:44;;;;;;;;;;;;;;;;;;5057255;28;7110;-60
2023/03/06 17:08:13;;;;;;;;;;;;;;;;;;5057114;28;6830;-60
2023/03/06 17:10:39;;;;;;;;;;;;;;;;;;5057212;28;7201;-60
2023/03/06 17:13:19;;;;;;;;;;;;;;;;;;5057067;28;6928;-60
2023/03/06 17:15:55;;;;;;;;;;;;;;;;;;5057017;28;8643;-60
2023/03/06 17:18:21;;;;;;;;;;;;;;;;;;5056038;28;7263;-60
2023/03/06 17:20:49;;;;;;;;;;;;;;;;;;5056533;28;7194;-60
2023/03/06 17:23:30;;;;;;;;;;;;;;;;;;5056790;28;7215;-59
2023/03/06 17:35:33;;;;;;;;;;;;;;;;;;4956745;28;6842;-60
2023/03/06 17:37:58;;;;;;;;;;;;;;;;;;4956648;28;7150;-60
2023/03/06 17:40:24;;;;;;;;;;;;;;;;;;4956605;28;7156;-60
2023/03/06 17:45:52;;;;;;;;;;;;;;;;;;4940137;28;6964;-61
2023/03/06 17:48:17;;;;;;;;;;;;;;;;;;4956314;28;6970;-59
2023/03/06 17:53:34;;;;;;;;;;;;;;;;;;4956385;28;7034;-60
2023/03/06 17:56:04;;;;;;;;;;;;;;;;;;4955711;28;7025;-59
2023/03/06 17:58:30;;;;;;;;;;;;;;;;;;4954872;28;6941;-60
2023/03/06 18:01:18;;;;;;;;;;;;;;;;;;4955454;28;7338;-60
2023/03/06 18:03:45;;;;;;;;;;;;;;;;;;4955894;28;7268;-60
2023/03/06 18:06:15;;;;;;;;;;;;;;;;;;5043868;28;7393;-60
2023/03/06 18:08:41;;;;;;;;;;;;;;;;;;5056114;28;7630;-60
2023/03/06 18:11:10;;;;;;;;;;;;;;;;;;5056041;28;7381;-60
2023/03/06 18:13:37;;;;;;;;;;;;;;;;;;5055568;28;7059;-60
2023/03/06 18:16:40;;;;;;;;;;;;;;;;;;5055995;28;6961;-61
2023/03/06 18:19:11;;;;;;;;;;;;;;;;;;5055666;28;7157;-60
2023/03/06 18:21:39;;;;;;;;;;;;;;;;;;5055953;28;7185;-60
2023/03/06 18:24:11;;;;;;;;;;;;;;;;;;5055697;28;7138;-60
2023/03/06 18:26:40;;;;;;;;;;;;;;;;;;5055706;28;7221;-60
2023/03/06 18:29:06;;;;;;;;;;;;;;;;;;5055529;28;7424;-60
2023/03/06 18:31:34;;;;;;;;;;;;;;;;;;5055666;28;6963;-60
2023/03/06 18:34:12;;;;;;;;;;;;;;;;;;5055502;28;7335;-60
2023/03/06 18:36:38;;;;;;;;;;;;;;;;;;5055575;28;6996;-60
2023/03/06 18:39:13;;;;;;;;;;;;;;;;;;5055602;28;6987;-60
2023/03/06 18:41:38;;;;;;;;;;;;;;;;;;5055929;28;7154;-60
2023/03/06 18:44:05;;;;;;;;;;;;;;;;;;5055077;28;7190;-60
2023/03/06 18:46:32;;;;;;;;;;;;;;;;;;5055372;28;7437;-60
2023/03/06 18:48:58;;;;;;;;;;;;;;;;;;5055178;28;7212;-60
2023/03/06 18:51:24;;;;;;;;;;;;;;;;;;5055219;28;6984;-60
2023/03/06 18:53:49;;;;;;;;;;;;;;;;;;5055185;28;7132;-60
2023/03/06 18:56:16;;;;;;;;;;;;;;;;;;5055709;28;7345;-60
2023/03/06 18:59:03;;;;;;;;;;;;;;;;;;5055243;28;7194;-60
2023/03/06 19:01:30;;;;;;;;;;;;;;;;;;5055131;28;7080;-60
2023/03/06 19:03:58;;;;;;;;;;;;;;;;;;5055069;28;6949;-60
2023/03/06 19:06:23;;;;;;;;;;;;;;;;;;5054813;28;7029;-60
2023/03/06 19:15:12;;;;;;;;;;;;;;;;;;5054819;28;6733;-60
2023/03/06 19:17:38;;;;;;;;;;;;;;;;;;5054860;28;7170;-60
2023/03/06 19:20:04;;;;;;;;;;;;;;;;;;5054799;28;7098;-60
2023/03/06 19:22:38;;;;;;;;;;;;;;;;;;5054742;28;7389;-60
2023/03/06 19:25:03;;;;;;;;;;;;;;;;;;5054871;28;7128;-60
2023/03/06 19:27:30;;;;;;;;;;;;;;;;;;5054741;28;7202;-60
2023/03/06 19:30:05;;;;;;;;;;;;;;;;;;5055571;28;6968;-60
2023/03/06 19:32:31;;;;;;;;;;;;;;;;;;5054611;28;6946;-60
2023/03/06 19:41:03;;;;;;;;;;;;;;;;;;5054361;28;6682;-60
2023/03/06 19:43:29;;;;;;;;;;;;;;;;;;5036533;28;8430;-61
2023/03/06 19:45:56;;;;;;;;;;;;;;;;;;5054633;28;7056;-60
2023/03/06 19:48:21;;;;;;;;;;;;;;;;;;5054247;28;7516;-60
2023/03/06 19:50:47;;;;;;;;;;;;;;;;;;5054407;28;7002;-60
2023/03/06 19:53:14;;;;;;;;;;;;;;;;;;5054175;28;7362;-60
2023/03/06 19:58:34;;;;;;;;;;;;;;;;;;5053347;28;7046;-60
2023/03/06 20:01:19;;;;;;;;;;;;;;;;;;5054601;28;7141;-60
2023/03/06 20:03:45;;;;;;;;;;;;;;;;;;5054344;28;7413;-60
2023/03/06 20:06:47;;;;;;;;;;;;;;;;;;5054416;28;7154;-61
2023/03/06 20:09:12;;;;;;;;;;;;;;;;;;5054260;28;7118;-60
2023/03/06 20:11:47;;;;;;;;;;;;;;;;;;5054335;28;7531;-60
2023/03/06 20:14:12;;;;;;;;;;;;;;;;;;5054219;28;7395;-64
2023/03/06 20:16:38;;;;;;;;;;;;;;;;;;5054346;28;6924;-61
2023/03/06 20:19:05;;;;;;;;;;;;;;;;;;5053534;28;7129;-60
2023/03/06 20:24:39;;;;;;;;;;;;;;;;;;5057876;28;7010;-60
2023/03/06 20:27:05;;;;;;;;;;;;;;;;;;5058076;28;7134;-61
2023/03/06 20:30:03;;;;;;;;;;;;;;;;;;5039878;28;8679;-60
2023/03/06 20:32:29;;;;;;;;;;;;;;;;;;5057965;28;7024;-60
2023/03/06 20:37:58;;;;;;;;;;;;;;;;;;5057715;28;6682;-60
2023/03/06 20:40:43;;;;;;;;;;;;;;;;;;5057800;28;7046;-60
2023/03/06 20:43:08;;;;;;;;;;;;;;;;;;5057270;28;7047;-60
2023/03/06 20:45:34;;;;;;;;;;;;;;;;;;5057702;28;6953;-61
2023/03/06 20:48:18;;;;;;;;;;;;;;;;;;5057747;28;7415;-61
2023/03/06 20:50:43;;;;;;;;;;;;;;;;;;5057907;28;7138;-61
2023/03/06 20:53:09;;;;;;;;;;;;;;;;;;5057419;28;7173;-61
2023/03/06 20:58:37;;;;;;;;;;;;;;;;;;5056770;28;6954;-61
2023/03/06 21:01:03;;;;;;;;;;;;;;;;;;5056184;28;7360;-61
2023/03/06 21:03:28;;;;;;;;;;;;;;;;;;5056859;28;6999;-61
2023/03/06 21:12:01;;;;;;;;;;;;;;;;;;5057047;28;6920;-61
2023/03/06 21:14:27;;;;;;;;;;;;;;;;;;5057084;28;7070;-61
2023/03/06 21:16:53;;;;;;;;;;;;;;;;;;5057183;28;7311;-61
2023/03/06 21:19:18;;;;;;;;;;;;;;;;;;5056227;28;7202;-61
2023/03/06 21:21:44;;;;;;;;;;;;;;;;;;5057029;28;7145;-60
2023/03/06 21:24:21;;;;;;;;;;;;;;;;;;5056949;28;7029;-60
2023/03/06 21:26:47;;;;;;;;;;;;;;;;;;5056960;28;7006;-60
2023/03/06 21:29:12;;;;;;;;;;;;;;;;;;5053686;28;7379;-61
2023/03/06 21:34:41;;;;;;;;;;;;;;;;;;5036800;28;6784;-61
2023/03/06 21:37:06;;;;;;;;;;;;;;;;;;5049647;28;7022;-61
2023/03/06 21:42:22;;;;;;;;;;;;;;;;;;5037048;28;7102;-61